Time;durP1;ratioP1;P1;durP2;ratioP2;P2;SDS_P1;SDS_P2;PMS_P1;PMS_P2;Temp;Humidity;BMP_temperature;BMP_pressure;BME280_temperature;BME280_humidity;BME280_pressure;Samples;Min_cycle;Max_cycle;Signal;HPM_P1;HPM_P2
2023/09/01 00:00:50;;;;;;;;;;;;;;;27.37;62.02;100727.66;7397185;19;1857;-52
2023/09/01 00:03:20;;;;;;;;;;;;;;;27.38;61.78;100719.31;7393624;19;1858;-50
2023/09/01 00:05:51;;;;;;;;;;;;;;;27.42;61.96;100713.50;7396036;19;1754;-51
2023/09/01 00:08:19;;;;;;;;;;;;;;;27.42;61.99;100719.78;7395091;19;1803;-52
2023/09/01 00:10:47;;;;;;;;;;;;;;;27.42;62.02;100724.38;7395957;19;1585;-52
2023/09/01 00:13:16;;;;;;;;;;;;;;;27.38;61.98;100702.19;7395657;19;1712;-52
2023/09/01 00:15:44;;;;;;;;;;;;;;;27.41;61.86;100720.78;7394758;19;1595;-52
2023/09/01 00:18:12;;;;;;;;;;;;;;;27.41;61.83;100719.97;7395858;19;1700;-52
2023/09/01 00:20:40;;;;;;;;;;;;;;;27.43;61.95;100736.91;7396504;19;1755;-52
2023/09/01 00:23:11;;;;;;;;;;;;;;;27.39;61.75;100728.28;7394811;19;1849;-53
2023/09/01 00:25:40;;;;;;;;;;;;;;;27.40;61.71;100724.56;7395612;19;1738;-52
2023/09/01 00:28:08;;;;;;;;;;;;;;;27.41;61.92;100723.50;7395335;19;1371;-50
2023/09/01 00:30:52;;;;;;;;;;;;;;;27.40;61.97;100720.97;7394575;19;1766;-50
2023/09/01 00:33:20;;;;;;;;;;;;;;;27.42;61.96;100718.94;7394188;19;1544;-51
2023/09/01 00:35:48;;;;;;;;;;;;;;;27.38;61.92;100724.75;7394254;19;1626;-51
2023/09/01 00:38:19;;;;;;;;;;;;;;;27.37;61.81;100739.34;7394693;19;1620;-53
2023/09/01 00:40:49;;;;;;;;;;;;;;;27.43;61.80;100736.91;7395209;19;1545;-52
2023/09/01 00:43:17;;;;;;;;;;;;;;;27.44;61.91;100744.03;7393895;19;1837;-52
2023/09/01 00:45:46;;;;;;;;;;;;;;;27.44;61.73;100744.03;7394373;19;1595;-52
2023/09/01 00:48:15;;;;;;;;;;;;;;;27.44;61.67;100746.75;7393832;19;1416;-52
2023/09/01 00:50:44;;;;;;;;;;;;;;;27.44;61.68;100728.56;7395114;19;1496;-52
2023/09/01 00:53:12;;;;;;;;;;;;;;;27.42;61.53;100735.22;7395031;19;1806;-52
2023/09/01 00:55:43;;;;;;;;;;;;;;;27.45;61.79;100748.41;7393942;19;1872;-50
2023/09/01 00:58:11;;;;;;;;;;;;;;;27.40;62.00;100748.13;7401235;19;1878;-51
2023/09/01 01:00:40;;;;;;;;;;;;;;;27.39;61.72;100747.31;7401079;19;1853;-50
2023/09/01 01:03:09;;;;;;;;;;;;;;;27.36;61.88;100756.69;7400417;19;1845;-52
2023/09/01 01:05:41;;;;;;;;;;;;;;;27.35;62.01;100754.16;7399105;19;2571;-52
2023/09/01 01:08:11;;;;;;;;;;;;;;;27.31;61.90;100748.25;7401925;19;1743;-52
2023/09/01 01:10:48;;;;;;;;;;;;;;;27.33;62.16;100762.47;7399416;19;1735;-52
2023/09/01 01:13:18;;;;;;;;;;;;;;;27.40;61.96;100759.00;7400461;19;1838;-51
2023/09/01 01:15:47;;;;;;;;;;;;;;;27.36;61.98;100775.69;7400576;19;1734;-52
2023/09/01 01:18:16;;;;;;;;;;;;;;;27.36;62.10;100758.56;7401362;19;1837;-51
2023/09/01 01:20:52;;;;;;;;;;;;;;;27.35;61.93;100763.13;7402332;19;1787;-51
2023/09/01 01:23:24;;;;;;;;;;;;;;;27.36;61.80;100774.84;7400573;19;1858;-53
2023/09/01 01:25:53;;;;;;;;;;;;;;;27.35;62.15;100779.41;7402212;19;1026;-52
2023/09/01 01:28:22;;;;;;;;;;;;;;;27.30;61.96;100781.88;7400478;19;1767;-50
2023/09/01 01:30:50;;;;;;;;;;;;;;;27.37;62.15;100785.50;7399509;19;1738;-51
2023/09/01 01:33:27;;;;;;;;;;;;;;;27.31;61.75;100786.25;7400014;19;1472;-50
2023/09/01 01:36:03;;;;;;;;;;;;;;;27.29;61.98;100774.75;7399204;19;1708;-50
2023/09/01 01:38:34;;;;;;;;;;;;;;;27.29;62.18;100769.31;7400551;19;1745;-50
2023/09/01 01:41:07;;;;;;;;;;;;;;;27.29;62.22;100774.75;7400216;19;1790;-51
2023/09/01 01:43:36;;;;;;;;;;;;;;;27.27;61.99;100782.25;7399037;19;1850;-51
2023/09/01 01:46:05;;;;;;;;;;;;;;;27.27;62.28;100776.00;7400612;19;1782;-52
2023/09/01 01:48:37;;;;;;;;;;;;;;;27.33;62.05;100783.38;7401690;19;1707;-51
2023/09/01 01:51:05;;;;;;;;;;;;;;;27.29;62.09;100782.91;7400039;19;1920;-51
2023/09/01 01:53:37;;;;;;;;;;;;;;;27.29;62.17;100785.63;7399739;19;1517;-51
2023/09/01 01:56:05;;;;;;;;;;;;;;;27.27;61.84;100782.25;7399117;19;1774;-52
2023/09/01 01:58:34;;;;;;;;;;;;;;;27.29;62.02;100788.34;7400844;19;1374;-51
2023/09/01 02:01:07;;;;;;;;;;;;;;;27.29;62.02;100782.91;7399854;19;1850;-50
2023/09/01 02:03:35;;;;;;;;;;;;;;;27.33;61.78;100788.78;7396690;19;1951;-52
2023/09/01 02:06:03;;;;;;;;;;;;;;;27.31;61.94;100793.56;7399939;19;1801;-51
2023/09/01 02:08:32;;;;;;;;;;;;;;;27.27;62.00;100787.69;7399665;19;1748;-50
2023/09/01 02:11:03;;;;;;;;;;;;;;;27.22;62.19;100787.41;7399454;19;1837;-51
2023/09/01 02:13:31;;;;;;;;;;;;;;;27.23;62.29;100794.50;7399467;19;1727;-50
2023/09/01 02:15:59;;;;;;;;;;;;;;;27.25;61.98;100802.50;7399317;19;1822;-51
2023/09/01 02:18:28;;;;;;;;;;;;;;;27.30;62.16;100803.59;7399151;19;1809;-51
2023/09/01 02:20:56;;;;;;;;;;;;;;;27.25;61.82;100797.88;7399215;19;1795;-51
2023/09/01 02:23:24;;;;;;;;;;;;;;;27.22;62.06;100806.41;7399322;19;1842;-51
2023/09/01 02:25:53;;;;;;;;;;;;;;;27.27;61.99;100803.13;7399272;19;1910;-51
2023/09/01 02:28:24;;;;;;;;;;;;;;;27.25;61.82;100800.59;7398886;19;1460;-51
2023/09/01 02:30:52;;;;;;;;;;;;;;;27.24;62.06;100809.81;7399750;19;1787;-51
2023/09/01 02:33:20;;;;;;;;;;;;;;;27.24;61.95;100809.81;7398129;19;1841;-52
2023/09/01 02:35:50;;;;;;;;;;;;;;;27.26;61.98;100813.16;7398152;19;1688;-51
2023/09/01 02:38:19;;;;;;;;;;;;;;;27.23;62.02;100818.94;7398828;19;1723;-51
2023/09/01 02:40:48;;;;;;;;;;;;;;;27.22;61.94;100809.13;7398728;19;1795;-51
2023/09/01 02:43:16;;;;;;;;;;;;;;;27.19;62.10;100812.19;7398495;19;1974;-50
2023/09/01 02:45:47;;;;;;;;;;;;;;;27.21;62.22;100799.28;7398120;19;1604;-51
2023/09/01 02:48:16;;;;;;;;;;;;;;;27.23;61.88;100813.50;7398097;19;1473;-51
2023/09/01 02:50:44;;;;;;;;;;;;;;;27.26;61.94;100818.59;7398803;19;1791;-50
2023/09/01 02:53:12;;;;;;;;;;;;;;;27.22;61.87;100814.53;7398474;19;1788;-51
2023/09/01 02:55:40;;;;;;;;;;;;;;;27.21;61.91;100826.41;7398007;19;1878;-51
2023/09/01 02:58:09;;;;;;;;;;;;;;;27.22;62.04;100811.84;7397708;19;1899;-51
2023/09/01 03:00:38;;;;;;;;;;;;;;;27.23;62.05;100808.06;7397770;19;1787;-51
2023/09/01 03:03:08;;;;;;;;;;;;;;;27.23;61.74;100805.34;7397033;19;1837;-52
2023/09/01 03:05:37;;;;;;;;;;;;;;;27.23;61.93;100816.22;7397536;19;1813;-51
2023/09/01 03:08:05;;;;;;;;;;;;;;;27.23;61.79;100805.34;7397331;19;1779;-51
2023/09/01 03:10:34;;;;;;;;;;;;;;;27.20;62.07;100805.75;7397204;19;1764;-51
2023/09/01 03:13:02;;;;;;;;;;;;;;;27.20;61.85;100808.47;7397980;19;1737;-51
2023/09/01 03:15:30;;;;;;;;;;;;;;;27.24;62.08;100803.50;7396963;19;1728;-50
2023/09/01 03:17:59;;;;;;;;;;;;;;;27.16;62.06;100813.41;7398318;19;1762;-51
2023/09/01 03:20:30;;;;;;;;;;;;;;;27.15;61.85;100805.47;7395994;19;1461;-51
2023/09/01 03:22:58;;;;;;;;;;;;;;;27.21;62.10;100807.41;7397493;19;1841;-51
2023/09/01 03:25:27;;;;;;;;;;;;;;;27.15;61.98;100805.47;7395181;19;1144;-51
2023/09/01 03:27:55;;;;;;;;;;;;;;;27.17;61.91;100808.81;7395787;19;1928;-51
2023/09/01 03:30:23;;;;;;;;;;;;;;;27.13;61.85;100812.94;7395991;19;1429;-51
2023/09/01 03:32:52;;;;;;;;;;;;;;;27.21;61.96;100821.00;7396731;19;1560;-51
2023/09/01 03:35:20;;;;;;;;;;;;;;;27.17;61.96;100815.09;7397113;19;1660;-51
2023/09/01 03:37:51;;;;;;;;;;;;;;;27.17;61.88;100833.25;7396348;19;1595;-51
2023/09/01 03:40:19;;;;;;;;;;;;;;;27.18;61.98;100815.94;7396826;19;1402;-51
2023/09/01 03:42:48;;;;;;;;;;;;;;;27.17;61.99;100825.13;7396197;19;1600;-51
2023/09/01 03:45:16;;;;;;;;;;;;;;;27.16;62.01;100815.31;7395815;19;1839;-51
2023/09/01 03:47:44;;;;;;;;;;;;;;;27.17;62.09;100825.94;7396346;19;1858;-51
2023/09/01 03:50:12;;;;;;;;;;;;;;;27.15;61.99;100843.47;7395850;19;1852;-51
2023/09/01 03:52:41;;;;;;;;;;;;;;;27.13;61.78;100842.81;7394076;19;1960;-51
2023/09/01 03:55:12;;;;;;;;;;;;;;;27.19;61.82;100828.47;7395101;19;1821;-51
2023/09/01 03:57:40;;;;;;;;;;;;;;;27.17;61.98;100834.09;7389966;19;1838;-51
2023/09/01 04:00:10;;;;;;;;;;;;;;;27.19;61.93;100839.34;7394270;19;1838;-51
2023/09/01 04:02:39;;;;;;;;;;;;;;;27.13;62.00;100842.81;7395881;19;1774;-50
2023/09/01 04:05:05;;;;;;;;;;;;;;;27.13;62.13;100843.66;7393873;19;1830;-51
2023/09/01 04:07:33;;;;;;;;;;;;;;;27.20;61.94;100835.63;7395760;19;1774;-51
2023/09/01 04:10:04;;;;;;;;;;;;;;;27.17;61.92;100858.53;7394476;19;1763;-51
2023/09/01 04:12:35;;;;;;;;;;;;;;;27.14;61.82;100858.91;7397177;19;1785;-50
2023/09/01 04:15:03;;;;;;;;;;;;;;;27.21;61.82;100847.31;7396032;19;1469;-52
2023/09/01 04:17:32;;;;;;;;;;;;;;;27.24;61.55;100841.50;7396037;19;1519;-51
2023/09/01 04:20:00;;;;;;;;;;;;;;;27.26;61.29;100837.59;7396780;19;1765;-51
2023/09/01 04:22:28;;;;;;;;;;;;;;;27.56;60.73;100853.84;7394251;19;1940;-51
2023/09/01 04:24:56;;;;;;;;;;;;;;;27.62;60.39;100850.38;7393928;19;1954;-51
2023/09/01 04:27:25;;;;;;;;;;;;;;;27.38;60.95;100855.09;7394680;19;1747;-51
2023/09/01 04:29:56;;;;;;;;;;;;;;;27.25;61.40;100854.06;7395435;19;1854;-51
2023/09/01 04:32:25;;;;;;;;;;;;;;;27.17;61.63;100850.38;7399869;19;1478;-51
2023/09/01 04:34:53;;;;;;;;;;;;;;;27.19;61.85;100861.06;7403734;19;1621;-51
2023/09/01 04:37:21;;;;;;;;;;;;;;;27.12;61.91;100849.28;7403383;19;1378;-50
2023/09/01 04:39:50;;;;;;;;;;;;;;;27.18;61.53;100854.78;7401097;19;1464;-52
2023/09/01 04:42:18;;;;;;;;;;;;;;;27.16;61.69;100869.59;7402312;19;1857;-51
2023/09/01 04:44:46;;;;;;;;;;;;;;;27.19;61.53;100859.19;7400289;19;1920;-51
2023/09/01 04:47:17;;;;;;;;;;;;;;;27.22;61.42;100866.13;7402387;19;1831;-51
2023/09/01 04:49:46;;;;;;;;;;;;;;;27.25;61.28;100879.34;7402728;19;1738;-51
2023/09/01 04:52:14;;;;;;;;;;;;;;;27.30;61.51;100879.63;7401392;19;1764;-51
2023/09/01 04:54:42;;;;;;;;;;;;;;;27.25;61.28;100886.66;7402448;19;1616;-51
2023/09/01 04:57:11;;;;;;;;;;;;;;;27.24;61.57;100883.09;7401417;19;1620;-51
2023/09/01 04:59:39;;;;;;;;;;;;;;;27.31;61.24;100889.44;7402596;19;1798;-51
2023/09/01 05:02:07;;;;;;;;;;;;;;;27.26;61.34;100888.34;7401606;19;1562;-51
2023/09/01 05:04:38;;;;;;;;;;;;;;;27.31;61.23;100881.31;7401382;19;1855;-52
2023/09/01 05:07:07;;;;;;;;;;;;;;;27.33;61.02;100891.97;7401379;19;1382;-51
2023/09/01 05:09:35;;;;;;;;;;;;;;;27.41;60.98;100889.16;7402259;19;1447;-51
2023/09/01 05:12:03;;;;;;;;;;;;;;;27.41;61.12;100875.59;7402132;19;1516;-50
2023/09/01 05:14:32;;;;;;;;;;;;;;;27.40;60.94;100892.94;7401515;19;1977;-51
2023/09/01 05:17:00;;;;;;;;;;;;;;;27.40;61.13;100889.34;7400858;19;1544;-50
2023/09/01 05:19:29;;;;;;;;;;;;;;;27.39;61.13;100893.94;7400625;19;1577;-51
2023/09/01 05:21:59;;;;;;;;;;;;;;;27.44;60.64;100899.66;7400150;19;1724;-52
2023/09/01 05:24:28;;;;;;;;;;;;;;;27.46;60.82;100889.47;7399429;19;1863;-52
2023/09/01 05:26:56;;;;;;;;;;;;;;;27.40;60.73;100889.34;7401006;19;1569;-51
2023/09/01 05:29:24;;;;;;;;;;;;;;;27.48;60.52;100887.41;7400340;19;1606;-53
2023/09/01 05:31:53;;;;;;;;;;;;;;;27.52;60.88;100896.00;7401770;19;1618;-51
2023/09/01 05:34:21;;;;;;;;;;;;;;;27.53;60.56;100900.41;7401170;19;1782;-51
2023/09/01 05:36:50;;;;;;;;;;;;;;;27.65;60.18;100898.03;7400709;19;1509;-50
2023/09/01 05:39:20;;;;;;;;;;;;;;;27.56;60.68;100903.59;7401048;19;1560;-50
2023/09/01 05:41:49;;;;;;;;;;;;;;;27.69;60.46;100915.66;7399875;19;1744;-49
2023/09/01 05:44:18;;;;;;;;;;;;;;;27.64;60.19;100915.38;7399380;19;1849;-51
2023/09/01 05:46:46;;;;;;;;;;;;;;;27.71;60.26;100914.41;7400317;19;1751;-52
2023/09/01 05:49:14;;;;;;;;;;;;;;;27.76;59.82;100911.16;7399079;19;1719;-51
2023/09/01 05:51:43;;;;;;;;;;;;;;;27.76;59.92;100906.53;7399056;19;1553;-51
2023/09/01 05:54:11;;;;;;;;;;;;;;;27.83;59.89;100895.75;7400250;19;1573;-52
2023/09/01 05:56:42;;;;;;;;;;;;;;;27.81;59.87;100899.69;7400703;19;1647;-51
2023/09/01 05:59:10;;;;;;;;;;;;;;;27.80;59.75;100912.44;7400126;19;1857;-51
2023/09/01 06:01:39;;;;;;;;;;;;;;;27.79;60.00;100894.44;7400368;19;1558;-51
2023/09/01 06:04:07;;;;;;;;;;;;;;;27.77;60.02;100907.38;7401001;19;1847;-50
2023/09/01 06:06:37;;;;;;;;;;;;;;;27.72;59.87;100899.81;7399789;19;1878;-51
2023/09/01 06:09:07;;;;;;;;;;;;;;;27.69;60.22;100902.91;7399511;19;1849;-51
2023/09/01 06:11:36;;;;;;;;;;;;;;;27.76;59.96;100916.59;7399437;19;1937;-52
2023/09/01 06:14:07;;;;;;;;;;;;;;;27.77;60.13;100908.25;7399335;19;1881;-51
2023/09/01 06:16:36;;;;;;;;;;;;;;;27.74;59.84;100903.19;7398618;19;1806;-52
2023/09/01 06:19:05;;;;;;;;;;;;;;;27.67;60.29;100901.41;7398570;19;1879;-51
2023/09/01 06:21:33;;;;;;;;;;;;;;;27.72;60.17;100899.81;7399815;19;1748;-51
2023/09/01 06:24:02;;;;;;;;;;;;;;;27.78;59.86;100900.94;7398747;19;1858;-51
2023/09/01 06:26:30;;;;;;;;;;;;;;;27.86;59.62;100911.69;7397991;19;1799;-51
2023/09/01 06:28:59;;;;;;;;;;;;;;;27.81;59.73;100916.84;7398792;19;1833;-51
2023/09/01 06:31:29;;;;;;;;;;;;;;;27.66;60.10;100922.31;7401077;19;1034;-51
2023/09/01 06:33:58;;;;;;;;;;;;;;;27.71;60.42;100919.00;7397472;19;1492;-51
2023/09/01 06:36:26;;;;;;;;;;;;;;;27.84;59.83;100918.34;7396838;19;1787;-50
2023/09/01 06:38:54;;;;;;;;;;;;;;;27.74;60.36;100918.66;7398485;19;1845;-51
2023/09/01 06:41:23;;;;;;;;;;;;;;;27.70;60.10;100934.47;7398081;19;1818;-50
2023/09/01 06:43:51;;;;;;;;;;;;;;;27.66;60.53;100933.19;7398311;19;1734;-51
2023/09/01 06:46:19;;;;;;;;;;;;;;;27.55;60.66;100953.50;7396847;19;1847;-50
2023/09/01 06:48:50;;;;;;;;;;;;;;;27.68;60.26;100939.25;7398088;19;1747;-51
2023/09/01 06:51:18;;;;;;;;;;;;;;;27.66;60.53;100944.03;7399145;19;1713;-51
2023/09/01 06:53:47;;;;;;;;;;;;;;;27.60;60.49;100952.94;7396755;19;1880;-51
2023/09/01 06:56:16;;;;;;;;;;;;;;;27.67;60.38;100948.44;7398108;19;1454;-50
2023/09/01 06:58:44;;;;;;;;;;;;;;;27.64;60.45;100961.56;7398444;19;1386;-51
2023/09/01 07:01:15;;;;;;;;;;;;;;;27.60;60.46;100971.97;7398711;19;1793;-51
2023/09/01 07:03:43;;;;;;;;;;;;;;;27.52;60.58;100961.19;7397806;19;1846;-51
2023/09/01 07:06:14;;;;;;;;;;;;;;;27.56;60.70;100970.66;7395719;19;1868;-51
2023/09/01 07:08:43;;;;;;;;;;;;;;;27.47;61.06;100971.78;7398331;19;1813;-51
2023/09/01 07:11:14;;;;;;;;;;;;;;;27.52;61.05;100963.91;7397931;19;1830;-50
2023/09/01 07:13:43;;;;;;;;;;;;;;;27.61;60.57;100981.78;7396578;19;1714;-50
2023/09/01 07:16:11;;;;;;;;;;;;;;;27.74;60.37;100971.13;7397475;19;1854;-51
2023/09/01 07:18:40;;;;;;;;;;;;;;;27.72;60.26;100985.94;7396892;19;1754;-51
2023/09/01 07:21:08;;;;;;;;;;;;;;;27.64;60.38;100989.59;7396926;19;1787;-51
2023/09/01 07:23:39;;;;;;;;;;;;;;;27.56;60.58;100987.78;7397809;19;1833;-51
2023/09/01 07:26:07;;;;;;;;;;;;;;;27.56;60.87;100976.94;7396028;19;1848;-52
2023/09/01 07:28:35;;;;;;;;;;;;;;;27.65;60.53;100985.81;7397978;19;1787;-51
2023/09/01 07:31:04;;;;;;;;;;;;;;;27.65;60.75;100974.94;7398078;19;1707;-51
2023/09/01 07:33:32;;;;;;;;;;;;;;;27.64;60.47;100999.59;7397499;19;1940;-51
2023/09/01 07:36:00;;;;;;;;;;;;;;;27.55;60.42;100991.53;7398753;19;1493;-52
2023/09/01 07:38:29;;;;;;;;;;;;;;;27.58;60.87;100987.63;7397021;19;1762;-51
2023/09/01 07:41:00;;;;;;;;;;;;;;;27.67;60.63;100994.63;7397969;19;1732;-51
2023/09/01 07:43:28;;;;;;;;;;;;;;;27.66;60.77;100992.94;7396909;19;1755;-51
2023/09/01 07:45:56;;;;;;;;;;;;;;;27.57;60.76;101000.38;7396309;19;1845;-51
2023/09/01 07:48:24;;;;;;;;;;;;;;;27.50;60.78;100991.25;7396445;19;1552;-51
2023/09/01 07:50:53;;;;;;;;;;;;;;;27.51;60.92;100982.06;7396613;19;1960;-51
2023/09/01 07:53:21;;;;;;;;;;;;;;;27.47;61.03;100990.78;7396323;19;1442;-51
2023/09/01 07:55:49;;;;;;;;;;;;;;;27.44;61.23;100994.72;7396797;19;1442;-51
2023/09/01 07:58:20;;;;;;;;;;;;;;;27.38;61.64;100984.59;7396177;19;1726;-51
2023/09/01 08:00:48;;;;;;;;;;;;;;;27.34;61.61;100984.13;7396699;19;1379;-51
2023/09/01 08:03:18;;;;;;;;;;;;;;;27.41;61.43;100983.38;7395061;19;1800;-51
2023/09/01 08:05:46;;;;;;;;;;;;;;;27.41;61.15;100994.25;7397201;19;1859;-50
2023/09/01 08:08:15;;;;;;;;;;;;;;;27.51;61.01;100973.09;7404893;19;1802;-51
2023/09/01 08:10:43;;;;;;;;;;;;;;;27.50;61.17;100982.28;7403546;19;1537;-52
2023/09/01 08:13:12;;;;;;;;;;;;;;;27.61;60.82;100978.25;7403412;19;1944;-51
2023/09/01 08:15:42;;;;;;;;;;;;;;;27.52;60.97;100969.34;7404097;19;1660;-50
2023/09/01 08:18:11;;;;;;;;;;;;;;;27.57;61.15;100973.19;7403830;19;1745;-51
2023/09/01 08:20:40;;;;;;;;;;;;;;;27.57;60.85;100977.75;7403227;19;1521;-51
2023/09/01 08:23:08;;;;;;;;;;;;;;;27.60;60.94;100982.84;7402757;19;1828;-50
2023/09/01 08:25:37;;;;;;;;;;;;;;;27.66;60.64;100983.97;7402900;19;1839;-51
2023/09/01 08:28:07;;;;;;;;;;;;;;;27.54;60.96;100968.13;7404499;19;1662;-51
2023/09/01 08:30:35;;;;;;;;;;;;;;;27.54;61.07;100978.16;7402773;19;1850;-51
2023/09/01 08:33:06;;;;;;;;;;;;;;;27.53;61.06;100976.44;7403811;19;1733;-51
2023/09/01 08:35:34;;;;;;;;;;;;;;;27.49;61.34;100970.53;7404300;19;1818;-51
2023/09/01 08:38:03;;;;;;;;;;;;;;;27.58;60.80;100976.75;7403013;19;1435;-51
2023/09/01 08:40:32;;;;;;;;;;;;;;;27.55;61.14;100967.06;7402780;19;1742;-51
2023/09/01 08:43:01;;;;;;;;;;;;;;;27.50;60.99;100979.56;7402680;19;1794;-51
2023/09/01 08:45:32;;;;;;;;;;;;;;;27.66;60.75;100982.09;7403987;19;1877;-51
2023/09/01 08:48:03;;;;;;;;;;;;;;;27.55;61.20;100968.97;7400569;19;1950;-51
2023/09/01 08:50:34;;;;;;;;;;;;;;;27.65;60.83;100971.41;7402258;19;1692;-50
2023/09/01 08:53:04;;;;;;;;;;;;;;;27.55;60.93;100974.41;7402525;19;1669;-51
2023/09/01 08:55:33;;;;;;;;;;;;;;;27.64;60.86;100976.00;7402404;19;1703;-50
2023/09/01 08:58:01;;;;;;;;;;;;;;;27.82;60.25;100978.31;7403041;19;1731;-51
2023/09/01 09:00:29;;;;;;;;;;;;;;;27.74;60.73;100968.41;7401854;19;1805;-51
2023/09/01 09:02:58;;;;;;;;;;;;;;;27.67;60.61;100970.16;7401459;19;1830;-51
2023/09/01 09:05:28;;;;;;;;;;;;;;;27.58;60.95;100968.59;7401030;19;1845;-51
2023/09/01 09:08:03;;;;;;;;;;;;;;;27.65;61.11;100980.38;7401841;19;1718;-51
2023/09/01 09:10:36;;;;;;;;;;;;;;;27.95;60.33;100977.66;7401809;19;1729;-51
2023/09/01 09:13:04;;;;;;;;;;;;;;;27.86;60.41;100959.78;7401785;19;1822;-51
2023/09/01 09:15:33;;;;;;;;;;;;;;;27.84;60.58;100964.56;7402083;19;1810;-51
2023/09/01 09:18:01;;;;;;;;;;;;;;;27.67;60.58;100967.44;7401214;19;1817;-51
2023/09/01 09:20:39;;;;;;;;;;;;;;;27.55;61.13;100974.41;7402075;19;1838;-50
2023/09/01 09:23:10;;;;;;;;;;;;;;;27.49;61.21;100959.69;7401875;19;1704;-51
2023/09/01 09:25:38;;;;;;;;;;;;;;;27.55;61.17;100955.38;7400777;19;2188;-51
2023/09/01 09:28:14;;;;;;;;;;;;;;;27.66;61.10;100967.66;7402325;19;1331;-51
2023/09/01 09:30:50;;;;;;;;;;;;;;;27.83;60.61;100971.00;7401528;19;1664;-51
2023/09/01 09:33:28;;;;;;;;;;;;;;;27.82;60.67;100956.59;7399622;19;1956;-51
2023/09/01 09:35:56;;;;;;;;;;;;;;;27.69;60.89;100957.22;7402059;19;1790;-52
2023/09/01 09:38:40;;;;;;;;;;;;;;;27.76;60.97;100955.47;7401309;19;1869;-51
2023/09/01 09:41:09;;;;;;;;;;;;;;;27.83;60.71;100954.69;7401075;19;1706;-51
2023/09/01 09:43:47;;;;;;;;;;;;;;;27.88;60.46;100952.31;7400653;19;1956;-51
2023/09/01 09:46:15;;;;;;;;;;;;;;;27.76;60.50;100963.63;7399053;19;1874;-51
2023/09/01 09:48:44;;;;;;;;;;;;;;;27.68;60.91;100949.28;7400852;19;1434;-50
2023/09/01 09:51:13;;;;;;;;;;;;;;;27.73;60.92;100953.09;7399917;19;1423;-52
2023/09/01 09:53:45;;;;;;;;;;;;;;;27.61;61.13;100965.50;7401179;19;1722;-51
2023/09/01 09:56:19;;;;;;;;;;;;;;;27.75;60.94;100950.22;7400299;19;1894;-51
2023/09/01 09:58:48;;;;;;;;;;;;;;;27.93;60.46;100955.28;7400204;19;1387;-51
2023/09/01 10:01:20;;;;;;;;;;;;;;;27.85;60.58;100949.91;7401654;19;1043;-51
2023/09/01 10:03:50;;;;;;;;;;;;;;;27.87;60.32;100936.97;7401402;19;1864;-51
2023/09/01 10:06:19;;;;;;;;;;;;;;;27.82;60.74;100948.44;7398491;19;1850;-50
2023/09/01 10:08:50;;;;;;;;;;;;;;;27.81;60.79;100945.91;7399867;19;1466;-52
2023/09/01 10:11:19;;;;;;;;;;;;;;;27.68;61.08;100952.84;7399802;19;1377;-51
2023/09/01 10:13:47;;;;;;;;;;;;;;;27.82;60.75;100950.31;7399616;19;1815;-51
2023/09/01 10:16:16;;;;;;;;;;;;;;;27.72;60.99;100951.44;7399110;19;1808;-51
2023/09/01 10:18:45;;;;;;;;;;;;;;;27.85;60.63;100947.19;7398477;19;1473;-51
2023/09/01 10:21:14;;;;;;;;;;;;;;;27.97;60.37;100945.69;7398244;19;1663;-51
2023/09/01 10:23:42;;;;;;;;;;;;;;;27.82;60.62;100936.72;7398108;19;1407;-51
2023/09/01 10:26:24;;;;;;;;;;;;;;;28.00;60.37;100944.50;7399480;19;1840;-51
2023/09/01 10:28:56;;;;;;;;;;;;;;;27.91;60.29;100930.16;7399653;19;1371;-51
2023/09/01 10:31:24;;;;;;;;;;;;;;;28.03;60.20;100931.34;7400012;19;1062;-51
2023/09/01 10:34:08;;;;;;;;;;;;;;;27.95;60.27;100936.91;7399336;19;1561;-50
2023/09/01 10:36:36;;;;;;;;;;;;;;;27.90;60.47;100945.63;7399558;19;1765;-51
2023/09/01 10:39:21;;;;;;;;;;;;;;;27.90;60.69;100939.34;7398365;19;1752;-51
2023/09/01 10:41:57;;;;;;;;;;;;;;;27.91;60.58;100944.63;7397359;19;1949;-50
2023/09/01 10:44:27;;;;;;;;;;;;;;;27.88;60.44;100931.38;7399372;19;1727;-51
2023/09/01 10:46:56;;;;;;;;;;;;;;;27.95;60.58;100935.03;7398985;19;1855;-51
2023/09/01 10:49:53;;;;;;;;;;;;;;;27.75;60.85;100948.34;7400129;19;1101;-51
2023/09/01 10:52:22;;;;;;;;;;;;;;;27.82;60.76;100947.59;7398571;19;1813;-51
2023/09/01 10:55:05;;;;;;;;;;;;;;;27.75;60.85;100932.06;7400312;19;967;-51
2023/09/01 10:57:43;;;;;;;;;;;;;;;27.90;60.69;100934.75;7399877;19;1039;-51
2023/09/01 11:00:27;;;;;;;;;;;;;;;27.88;60.74;100944.16;7399742;19;972;-51
2023/09/01 11:02:55;;;;;;;;;;;;;;;27.80;60.80;100933.34;7396926;19;1860;-51
2023/09/01 11:05:38;;;;;;;;;;;;;;;27.87;60.75;100926.09;7396696;19;1961;-51
2023/09/01 11:08:15;;;;;;;;;;;;;;;27.78;61.03;100942.53;7397159;19;1444;-52
2023/09/01 11:10:44;;;;;;;;;;;;;;;27.88;60.68;100923.25;7397239;19;1703;-51
2023/09/01 11:13:19;;;;;;;;;;;;;;;28.05;60.31;100940.16;7396157;19;1326;-52
2023/09/01 11:15:48;;;;;;;;;;;;;;;27.88;60.84;100930.56;7396902;19;1732;-51
2023/09/01 11:18:20;;;;;;;;;;;;;;;27.79;60.83;100929.78;7397835;19;1715;-51
2023/09/01 11:20:49;;;;;;;;;;;;;;;27.87;60.57;100917.94;7397684;19;1502;-51
2023/09/01 11:23:21;;;;;;;;;;;;;;;27.73;61.18;100922.38;7397276;19;1508;-51
2023/09/01 11:25:50;;;;;;;;;;;;;;;27.86;60.76;100919.00;7396540;19;1859;-52
2023/09/01 11:28:22;;;;;;;;;;;;;;;27.84;60.67;100916.47;7397968;19;1813;-51
2023/09/01 11:30:53;;;;;;;;;;;;;;;28.00;60.55;100915.44;7399246;19;1017;-51
2023/09/01 11:33:22;;;;;;;;;;;;;;;28.09;60.09;100910.69;7396226;19;2035;-51
2023/09/01 11:35:51;;;;;;;;;;;;;;;27.89;60.87;100911.31;7398825;19;1000;-51
2023/09/01 11:38:20;;;;;;;;;;;;;;;28.00;60.40;100911.88;7397379;19;1524;-51
2023/09/01 11:40:49;;;;;;;;;;;;;;;28.11;60.06;100908.63;7395732;19;1596;-51
2023/09/01 11:43:17;;;;;;;;;;;;;;;28.15;60.23;100909.94;7396040;19;1924;-51
2023/09/01 11:45:52;;;;;;;;;;;;;;;28.07;60.48;100908.19;7397116;19;1841;-51
2023/09/01 11:48:24;;;;;;;;;;;;;;;28.04;60.25;100914.00;7396674;19;1817;-51
2023/09/01 11:50:53;;;;;;;;;;;;;;;28.03;60.51;100914.19;7396714;19;1727;-51
2023/09/01 11:53:25;;;;;;;;;;;;;;;28.04;60.21;100903.13;7396040;19;1489;-51
2023/09/01 11:55:58;;;;;;;;;;;;;;;27.81;61.07;100894.25;7396099;19;1492;-51
2023/09/01 11:58:26;;;;;;;;;;;;;;;28.06;60.42;100898.34;7396560;19;1704;-51
2023/09/01 12:00:57;;;;;;;;;;;;;;;27.95;60.57;100893.41;7398627;19;1000;-51
2023/09/01 12:03:25;;;;;;;;;;;;;;;28.08;60.17;100893.56;7395798;19;1489;-51
2023/09/01 12:05:54;;;;;;;;;;;;;;;28.12;59.88;100897.56;7396199;19;1845;-51
2023/09/01 12:08:26;;;;;;;;;;;;;;;28.12;60.30;100899.47;7396243;19;1679;-51
2023/09/01 12:11:06;;;;;;;;;;;;;;;28.14;60.02;100894.66;7395398;19;1390;-52
2023/09/01 12:13:34;;;;;;;;;;;;;;;28.13;60.02;100902.00;7395523;19;1453;-75
2023/09/01 12:16:06;;;;;;;;;;;;;;;28.13;59.93;100885.69;7395658;19;1495;-51
2023/09/01 12:18:36;;;;;;;;;;;;;;;28.15;59.93;100889.03;7394844;19;1722;-50
2023/09/01 12:21:05;;;;;;;;;;;;;;;28.11;60.01;100895.91;7394201;19;1780;-51
2023/09/01 12:23:34;;;;;;;;;;;;;;;28.08;60.30;100892.72;7395986;19;1421;-51
2023/09/01 12:26:03;;;;;;;;;;;;;;;28.06;60.29;100894.78;7396669;19;1866;-51
2023/09/01 12:28:32;;;;;;;;;;;;;;;27.99;60.64;100883.81;7396103;19;1522;-51
2023/09/01 12:31:02;;;;;;;;;;;;;;;28.08;60.36;100887.28;7397067;19;1477;-50
2023/09/01 12:33:33;;;;;;;;;;;;;;;28.08;60.30;100890.84;7394517;19;1940;-50
2023/09/01 12:36:02;;;;;;;;;;;;;;;28.06;60.38;100889.34;7396090;19;1732;-50
2023/09/01 12:38:30;;;;;;;;;;;;;;;28.04;60.45;100892.25;7395451;19;1849;-51
2023/09/01 12:40:59;;;;;;;;;;;;;;;28.11;60.40;100889.59;7396179;19;1786;-50
2023/09/01 12:43:27;;;;;;;;;;;;;;;28.07;60.50;100888.31;7395805;19;1759;-51
2023/09/01 12:45:55;;;;;;;;;;;;;;;28.10;60.19;100869.75;7396470;19;1775;-51
2023/09/01 12:48:24;;;;;;;;;;;;;;;28.11;60.09;100876.88;7393517;19;1845;-51
2023/09/01 12:50:55;;;;;;;;;;;;;;;27.98;60.80;100882.16;7396306;19;1370;-52
2023/09/01 12:53:23;;;;;;;;;;;;;;;28.13;60.09;100873.94;7400222;19;1433;-51
2023/09/01 12:55:51;;;;;;;;;;;;;;;28.10;60.36;100869.75;7402557;19;1814;-53
2023/09/01 12:58:20;;;;;;;;;;;;;;;28.04;60.49;100875.94;7402171;19;1830;-52
2023/09/01 13:00:48;;;;;;;;;;;;;;;28.06;60.52;100863.00;7403141;19;1715;-53